createdAt,value
2018-11-23T00:00:57.043Z,-0.50
2018-11-23T00:03:45.467Z,-0.50
2018-11-23T00:06:33.947Z,-0.50
2018-11-23T00:09:22.404Z,-0.50
2018-11-23T00:12:11.631Z,-0.50
2018-11-23T00:15:00.083Z,-0.50
2018-11-23T00:17:48.551Z,-0.50
2018-11-23T00:20:37.046Z,-0.50
2018-11-23T00:23:25.494Z,-0.60
2018-11-23T00:26:13.876Z,-0.60
2018-11-23T00:29:02.467Z,-0.60
2018-11-23T00:31:51.473Z,-0.60
2018-11-23T00:34:39.849Z,-0.60
2018-11-23T00:37:28.294Z,-0.60
2018-11-23T00:40:36.165Z,-0.70
2018-11-23T00:43:24.674Z,-0.70
2018-11-23T00:46:13.093Z,-0.70
2018-11-23T00:55:29.239Z,-0.80
2018-11-23T00:58:17.663Z,-0.80
2018-11-23T01:01:06.207Z,-0.80
2018-11-23T01:03:54.692Z,-0.90
2018-11-23T01:13:12.033Z,-1.00
2018-11-23T01:16:00.480Z,-1.00
2018-11-23T01:18:48.978Z,-1.00
2018-11-23T01:21:37.445Z,-1.00
2018-11-23T01:24:25.877Z,-1.00
2018-11-23T01:27:14.274Z,-1.00
2018-11-23T01:30:02.954Z,-1.00
2018-11-23T01:32:51.390Z,-1.00
2018-11-23T01:35:48.624Z,-1.00
2018-11-23T01:38:37.083Z,-1.00
2018-11-23T01:41:25.556Z,-1.10
2018-11-23T01:44:14.023Z,-1.10
2018-11-23T01:47:02.510Z,-1.20
2018-11-23T01:49:51.025Z,-1.10
2018-11-23T01:52:39.562Z,-1.10
2018-11-23T01:55:28.201Z,-1.10
2018-11-23T01:58:16.641Z,-1.10
2018-11-23T02:01:05.292Z,-1.20
2018-11-23T02:03:53.763Z,-1.20
2018-11-23T02:06:42.198Z,-1.20
2018-11-23T02:09:30.848Z,-1.20
2018-11-23T02:12:19.278Z,-1.20
2018-11-23T02:15:08.691Z,-1.30
2018-11-23T02:17:57.099Z,-1.30
2018-11-23T02:20:45.550Z,-1.30
2018-11-23T02:23:34.110Z,-1.30
2018-11-23T02:29:23.351Z,-1.30
2018-11-23T02:32:04.992Z,-1.30
2018-11-23T02:34:46.482Z,-1.40
2018-11-23T02:37:27.530Z,-1.40
2018-11-23T02:40:07.316Z,-1.40
2018-11-23T02:42:55.765Z,-1.40
2018-11-23T02:45:44.201Z,-1.40
2018-11-23T02:48:32.703Z,-1.40
2018-11-23T02:51:21.094Z,-1.40
2018-11-23T02:54:09.533Z,-1.40
2018-11-23T03:03:20.480Z,-1.40
2018-11-23T03:15:44.680Z,-1.50
2018-11-23T03:18:33.076Z,-1.50
2018-11-23T03:21:21.488Z,-1.40
2018-11-23T03:24:10.035Z,-1.40
2018-11-23T03:26:58.488Z,-1.40
2018-11-23T03:29:47.002Z,-1.40
2018-11-23T03:32:35.389Z,-1.30
2018-11-23T03:35:24.060Z,-1.20
2018-11-23T03:38:12.514Z,-1.10
2018-11-23T03:41:00.886Z,-1.00
2018-11-23T03:43:49.322Z,-0.80
2018-11-23T03:46:37.741Z,-0.80
2018-11-23T03:49:26.308Z,-0.70
2018-11-23T03:52:14.699Z,-0.70
2018-11-23T03:55:03.189Z,-0.70
2018-11-23T04:00:59.238Z,-0.70
2018-11-23T04:03:47.763Z,-0.70
2018-11-23T04:06:36.218Z,-0.80
2018-11-23T04:09:24.585Z,-0.80
2018-11-23T04:12:13.153Z,-0.80
2018-11-23T04:15:01.719Z,-0.70
2018-11-23T04:17:50.791Z,-0.70
2018-11-23T04:20:39.244Z,-0.70
2018-11-23T04:36:07.290Z,-0.90
2018-11-23T04:38:55.726Z,-1.00
2018-11-23T04:41:46.397Z,-1.00
2018-11-23T04:48:04.391Z,-1.10
2018-11-23T04:50:52.822Z,-1.10
2018-11-23T04:53:41.256Z,-1.20
2018-11-23T04:56:29.771Z,-1.20
2018-11-23T04:59:18.251Z,-1.20
2018-11-23T05:01:47.219Z,-1.20
2018-11-23T05:04:35.696Z,-1.30
2018-11-23T05:07:24.158Z,-1.30
2018-11-23T05:10:13.784Z,-1.30
2018-11-23T05:13:02.211Z,-1.30
2018-11-23T05:15:50.653Z,-1.40
2018-11-23T05:18:39.132Z,-1.30
2018-11-23T05:21:27.534Z,-1.30
2018-11-23T05:24:16.038Z,-1.30
2018-11-23T05:27:04.640Z,-1.30
2018-11-23T05:29:53.026Z,-1.40
2018-11-23T05:32:41.584Z,-1.40
2018-11-23T05:38:37.593Z,-1.40
2018-11-23T05:41:25.953Z,-1.40
2018-11-23T05:44:14.424Z,-1.40
2018-11-23T05:47:02.832Z,-1.30
2018-11-23T05:49:51.277Z,-1.30
2018-11-23T05:52:39.829Z,-1.30
2018-11-23T05:55:28.235Z,-1.20
2018-11-23T05:58:16.705Z,-1.10
2018-11-23T06:01:05.207Z,-1.10
2018-11-23T06:03:53.671Z,-1.00
2018-11-23T06:06:42.454Z,-0.90
2018-11-23T06:09:30.522Z,-0.90
2018-11-23T06:12:18.937Z,-0.80
2018-11-23T06:15:08.342Z,-0.80
2018-11-23T06:17:56.753Z,-0.70
2018-11-23T06:20:45.168Z,-0.70
2018-11-23T06:26:41.361Z,-0.60
2018-11-23T06:29:29.778Z,-0.50
2018-11-23T06:32:37.680Z,-0.50
2018-11-23T06:35:26.100Z,-0.40
2018-11-23T06:38:14.543Z,-0.30
2018-11-23T06:41:02.927Z,-0.30
2018-11-23T06:47:05.666Z,-0.20
2018-11-23T06:49:54.092Z,-0.20
2018-11-23T06:52:42.533Z,-0.20
2018-11-23T06:55:31.050Z,-0.20
2018-11-23T07:08:00.895Z,-0.30
2018-11-23T07:10:49.315Z,-0.40
2018-11-23T07:13:37.756Z,-0.40
2018-11-23T07:16:26.139Z,-0.40
2018-11-23T07:19:14.573Z,-0.40
2018-11-23T07:22:02.942Z,-0.30
2018-11-23T07:24:51.365Z,-0.30
2018-11-23T07:27:39.978Z,-0.30
2018-11-23T07:33:43.179Z,-0.30
2018-11-23T07:36:31.542Z,-0.30
2018-11-23T07:39:39.950Z,-0.30
2018-11-23T07:42:29.854Z,-0.30
2018-11-23T07:45:18.245Z,-0.30
2018-11-23T07:48:06.785Z,-0.20
2018-11-23T07:50:55.816Z,-0.10
2018-11-23T07:53:43.708Z,0.00
2018-11-23T07:56:32.118Z,0.10
2018-11-23T07:59:20.505Z,0.20
2018-11-23T08:02:09.998Z,0.30
2018-11-23T08:04:58.385Z,0.40
2018-11-23T08:07:46.839Z,0.40
2018-11-23T08:10:34.654Z,0.50
2018-11-23T08:13:23.035Z,0.50
2018-11-23T08:16:11.398Z,0.60
2018-11-23T08:18:59.816Z,0.60
2018-11-23T08:21:48.306Z,0.60
2018-11-23T08:24:36.757Z,0.60
2018-11-23T08:27:25.146Z,0.60
2018-11-23T08:30:18.431Z,0.70
2018-11-23T08:33:07.100Z,0.80
2018-11-23T08:35:55.773Z,0.70
2018-11-23T08:38:44.188Z,0.90
2018-11-23T08:41:33.132Z,0.90
2018-11-23T08:44:21.557Z,0.90
2018-11-23T08:47:09.932Z,1.00
2018-11-23T08:49:58.460Z,1.20
2018-11-23T08:52:46.868Z,1.20
2018-11-23T08:55:35.280Z,1.30
2018-11-23T08:58:23.771Z,1.40
2018-11-23T09:04:25.643Z,1.60
2018-11-23T09:11:18.419Z,1.70
2018-11-23T09:14:07.380Z,1.90
2018-11-23T09:16:55.882Z,2.00
2018-11-23T09:19:44.391Z,2.20
2018-11-23T09:22:32.806Z,2.20
2018-11-23T09:25:22.404Z,2.40
2018-11-23T09:31:18.378Z,2.70
2018-11-23T09:34:06.778Z,2.70
2018-11-23T09:36:55.344Z,2.70
2018-11-23T09:39:43.760Z,2.70
2018-11-23T09:42:32.288Z,2.80
2018-11-23T09:45:21.878Z,3.00
2018-11-23T09:48:10.426Z,3.30
2018-11-23T09:50:58.828Z,3.40
2018-11-23T09:53:47.282Z,3.60
2018-11-23T09:56:35.993Z,3.90
2018-11-23T09:59:24.460Z,4.20
2018-11-23T10:02:12.920Z,4.30
2018-11-23T10:05:01.353Z,4.40
2018-11-23T10:08:08.952Z,4.50
2018-11-23T10:10:57.352Z,4.80
2018-11-23T10:13:45.811Z,5.00
2018-11-23T10:16:34.220Z,5.20
2018-11-23T10:19:42.469Z,5.30
2018-11-23T10:25:44.541Z,5.60
2018-11-23T10:28:32.921Z,5.80
2018-11-23T10:37:51.788Z,6.20
2018-11-23T10:40:42.864Z,6.20
2018-11-23T10:43:31.383Z,6.40
2018-11-23T10:46:19.777Z,6.40
2018-11-23T10:49:08.349Z,6.50
2018-11-23T10:51:56.743Z,6.60
2018-11-23T10:54:45.140Z,6.70
2018-11-23T10:57:33.557Z,6.70
2018-11-23T11:00:41.166Z,6.90
2018-11-23T11:03:48.757Z,7.10
2018-11-23T11:06:56.464Z,7.00
2018-11-23T11:09:44.900Z,7.10
2018-11-23T11:12:33.335Z,6.90
2018-11-23T11:15:21.696Z,6.80
2018-11-23T11:18:10.097Z,6.70
2018-11-23T11:20:58.508Z,6.50
2018-11-23T11:23:46.942Z,6.60
2018-11-23T11:26:35.348Z,6.70
2018-11-23T11:29:23.781Z,6.70
2018-11-23T11:32:12.180Z,6.60
2018-11-23T11:35:00.601Z,6.70
2018-11-23T11:37:49.043Z,6.60
2018-11-23T11:40:37.444Z,6.80
2018-11-23T11:43:25.860Z,6.90
2018-11-23T11:46:14.313Z,7.10
2018-11-23T11:49:02.754Z,7.20
2018-11-23T11:51:51.248Z,7.30
2018-11-23T11:54:39.668Z,7.60
2018-11-23T11:57:28.054Z,7.70
2018-11-23T12:03:10.305Z,7.80
2018-11-23T12:05:58.691Z,7.90
2018-11-23T12:08:47.175Z,8.00
2018-11-23T12:11:35.548Z,8.20
2018-11-23T12:14:24.090Z,8.10
2018-11-23T12:17:12.490Z,8.10
2018-11-23T12:20:00.865Z,8.10
2018-11-23T12:26:03.504Z,8.30
2018-11-23T12:28:51.956Z,8.40
2018-11-23T12:31:40.373Z,8.50
2018-11-23T12:34:28.835Z,8.40
2018-11-23T12:37:17.724Z,8.50
2018-11-23T12:40:06.851Z,8.40
2018-11-23T12:42:55.355Z,8.50
2018-11-23T12:45:43.765Z,8.40
2018-11-23T12:48:32.136Z,8.50
2018-11-23T12:51:20.694Z,8.40
2018-11-23T12:54:09.092Z,8.50
2018-11-23T12:56:57.535Z,8.50
2018-11-23T12:59:45.897Z,8.60
2018-11-23T13:02:34.319Z,8.50
2018-11-23T13:05:23.744Z,8.60
2018-11-23T13:08:12.204Z,8.60
2018-11-23T13:11:00.617Z,8.50
2018-11-23T13:13:49.002Z,8.50
2018-11-23T13:19:51.059Z,8.50
2018-11-23T13:22:39.671Z,8.70
2018-11-23T13:25:22.349Z,8.70
2018-11-23T13:28:03.552Z,8.70
2018-11-23T13:30:45.360Z,8.70
2018-11-23T13:33:26.587Z,8.80
2018-11-23T13:36:09.009Z,8.90
2018-11-23T13:38:50.061Z,8.80
2018-11-23T13:41:31.920Z,8.80
2018-11-23T13:44:13.782Z,8.80
2018-11-23T13:46:55.310Z,8.80
2018-11-23T13:49:36.838Z,8.80
2018-11-23T13:52:18.627Z,8.90
2018-11-23T13:55:00.085Z,8.90
2018-11-23T13:57:41.677Z,8.90
2018-11-23T14:00:24.690Z,8.90
2018-11-23T14:03:05.956Z,8.90
2018-11-23T14:05:46.976Z,8.90
2018-11-23T14:08:28.130Z,8.90
2018-11-23T14:11:09.931Z,9.00
2018-11-23T14:13:51.541Z,8.90
2018-11-23T14:16:32.604Z,8.90
2018-11-23T14:22:23.514Z,8.80
2018-11-23T14:25:05.405Z,8.80
2018-11-23T14:27:47.046Z,8.80
2018-11-23T14:30:30.094Z,8.70
2018-11-23T14:36:20.890Z,8.60
2018-11-23T14:39:02.417Z,8.60
2018-11-23T14:41:44.140Z,8.50
2018-11-23T14:44:25.933Z,8.50
2018-11-23T14:47:07.618Z,8.50
2018-11-23T14:49:49.019Z,8.40
2018-11-23T14:52:30.897Z,8.50
2018-11-23T14:55:12.691Z,8.30
2018-11-23T14:57:54.195Z,8.20
2018-11-23T15:00:36.221Z,8.20
2018-11-23T15:03:06.229Z,8.10
2018-11-23T15:05:54.640Z,8.00
2018-11-23T15:08:43.038Z,8.00
2018-11-23T15:11:31.500Z,7.90
2018-11-23T15:14:19.898Z,7.80
2018-11-23T15:17:08.442Z,7.70
2018-11-23T15:19:56.870Z,7.70
2018-11-23T15:22:45.697Z,7.60
2018-11-23T15:28:41.680Z,7.40
2018-11-23T15:31:30.097Z,7.20
2018-11-23T15:34:18.549Z,7.30
2018-11-23T15:37:06.933Z,7.10
2018-11-23T15:39:55.332Z,7.10
2018-11-23T15:42:44.048Z,7.00
2018-11-23T15:45:33.572Z,6.80
2018-11-23T15:48:21.940Z,6.80
2018-11-23T15:51:10.845Z,6.70
2018-11-23T15:53:59.273Z,6.50
2018-11-23T15:56:47.716Z,6.50
2018-11-23T15:59:36.129Z,6.30
2018-11-23T16:05:39.403Z,6.40
2018-11-23T16:08:27.915Z,6.30
2018-11-23T16:11:16.470Z,6.30
2018-11-23T16:14:04.908Z,6.20
2018-11-23T16:16:53.298Z,6.20
2018-11-23T16:23:14.766Z,6.10
2018-11-23T16:26:02.832Z,6.00
2018-11-23T16:28:51.283Z,6.00
2018-11-23T16:31:39.695Z,5.90
2018-11-23T16:34:28.252Z,5.90
2018-11-23T16:37:17.406Z,5.70
2018-11-23T16:40:06.900Z,5.70
2018-11-23T16:42:56.110Z,5.70
2018-11-23T16:45:44.962Z,5.60
2018-11-23T16:48:33.368Z,5.60
2018-11-23T16:51:21.820Z,5.50
2018-11-23T16:57:23.820Z,5.40
2018-11-23T17:03:26.860Z,5.30
2018-11-23T17:09:29.237Z,5.30
2018-11-23T17:15:31.933Z,5.30
2018-11-23T17:18:20.343Z,5.30
2018-11-23T17:21:08.823Z,5.20
2018-11-23T17:23:57.272Z,5.00
2018-11-23T17:26:45.659Z,5.00
2018-11-23T17:29:34.212Z,5.10
2018-11-23T17:32:22.645Z,5.00
2018-11-23T17:35:11.757Z,5.10
2018-11-23T17:38:00.206Z,5.10
2018-11-23T17:40:48.626Z,5.00
2018-11-23T17:43:37.064Z,4.90
2018-11-23T17:46:25.505Z,4.90
2018-11-23T17:49:13.958Z,4.90
2018-11-23T17:52:02.348Z,4.80
2018-11-23T17:54:50.946Z,4.80
2018-11-23T17:57:39.758Z,4.80
2018-11-23T18:00:29.562Z,4.70
2018-11-23T18:03:17.963Z,4.70
2018-11-23T18:06:06.484Z,4.70
2018-11-23T18:08:54.907Z,4.60
2018-11-23T18:11:43.259Z,4.50
2018-11-23T18:14:31.661Z,4.50
2018-11-23T18:17:20.089Z,4.50
2018-11-23T18:20:09.288Z,4.40
2018-11-23T18:22:58.482Z,4.40
2018-11-23T18:25:46.818Z,4.40
2018-11-23T18:28:35.325Z,4.40
2018-11-23T18:31:23.714Z,4.40
2018-11-23T18:37:26.368Z,4.30
2018-11-23T18:40:14.904Z,4.30
2018-11-23T18:43:03.400Z,4.20
2018-11-23T18:45:51.856Z,4.30
2018-11-23T18:48:40.234Z,4.20
2018-11-23T18:51:28.753Z,4.30
2018-11-23T18:54:17.281Z,4.20
2018-11-23T19:00:19.759Z,4.10
2018-11-23T19:03:08.212Z,4.10
2018-11-23T19:05:56.628Z,4.20
2018-11-23T19:08:44.985Z,4.10
2018-11-23T19:11:33.431Z,4.00
2018-11-23T19:14:21.925Z,4.00
2018-11-23T19:20:25.158Z,4.00
2018-11-23T19:23:13.768Z,3.90
2018-11-23T19:26:21.873Z,4.00
2018-11-23T19:29:10.291Z,4.00
2018-11-23T19:31:58.654Z,4.00
2018-11-23T19:34:47.043Z,4.00
2018-11-23T19:37:35.490Z,4.00
2018-11-23T19:40:23.917Z,3.90
2018-11-23T19:43:12.287Z,4.00
2018-11-23T19:46:00.727Z,3.90
2018-11-23T19:49:07.193Z,3.90
2018-11-23T19:51:55.611Z,4.00
2018-11-23T19:54:44.039Z,4.00
2018-11-23T19:57:32.516Z,3.90
2018-11-23T20:00:01.411Z,3.90
2018-11-23T20:02:49.852Z,3.90
2018-11-23T20:05:38.225Z,3.80
2018-11-23T20:08:26.614Z,3.70
2018-11-23T20:14:23.238Z,3.80
2018-11-23T20:17:12.315Z,3.70
2018-11-23T20:20:00.791Z,3.70
2018-11-23T20:22:49.679Z,3.70
2018-11-23T20:25:38.042Z,3.70
2018-11-23T20:28:26.564Z,3.70
2018-11-23T20:31:14.982Z,3.70
2018-11-23T20:34:03.379Z,3.70
2018-11-23T20:36:51.856Z,3.70
2018-11-23T20:39:40.231Z,3.70
2018-11-23T20:42:28.655Z,3.70
2018-11-23T20:45:17.119Z,3.70
2018-11-23T20:48:05.537Z,3.60
2018-11-23T20:50:53.938Z,3.50
2018-11-23T20:53:42.349Z,3.60
2018-11-23T20:56:30.786Z,3.60
2018-11-23T20:59:19.831Z,3.50
2018-11-23T21:02:08.292Z,3.40
2018-11-23T21:04:37.392Z,3.50
2018-11-23T21:07:25.776Z,3.50
2018-11-23T21:10:33.668Z,3.50
2018-11-23T21:13:22.089Z,3.40
2018-11-23T21:16:10.467Z,3.40
2018-11-23T21:18:58.845Z,3.40
2018-11-23T21:25:00.738Z,3.30
2018-11-23T21:27:49.123Z,3.20
2018-11-23T21:30:37.571Z,3.20
2018-11-23T21:36:39.787Z,3.20
2018-11-23T21:39:28.188Z,3.10
2018-11-23T21:42:16.631Z,3.00
2018-11-23T21:45:06.111Z,3.00
2018-11-23T21:47:54.535Z,3.00
2018-11-23T21:50:42.938Z,2.90
2018-11-23T21:56:45.792Z,3.00
2018-11-23T21:59:34.183Z,2.90
2018-11-23T22:02:22.565Z,2.90
2018-11-23T22:04:51.620Z,2.80
2018-11-23T22:07:40.042Z,2.80
2018-11-23T22:10:28.531Z,2.70
2018-11-23T22:13:16.882Z,2.70
2018-11-23T22:19:19.103Z,2.70
2018-11-23T22:22:07.499Z,2.60
2018-11-23T22:24:55.885Z,2.60
2018-11-23T22:27:44.382Z,2.60
2018-11-23T22:30:32.783Z,2.60
2018-11-23T22:33:21.211Z,2.60
2018-11-23T22:36:09.641Z,2.60
2018-11-23T22:42:11.910Z,2.60
2018-11-23T22:44:41.104Z,2.50
2018-11-23T22:47:29.539Z,2.40
2018-11-23T22:50:37.406Z,2.30
2018-11-23T22:53:25.855Z,2.30
2018-11-23T22:56:33.990Z,2.30
2018-11-23T22:59:22.361Z,2.30
2018-11-23T23:05:24.613Z,2.20
2018-11-23T23:08:12.990Z,2.10
2018-11-23T23:11:01.380Z,2.20
2018-11-23T23:13:49.772Z,2.10
2018-11-23T23:16:31.237Z,2.00
2018-11-23T23:19:12.963Z,1.90
2018-11-23T23:21:54.434Z,1.90
2018-11-23T23:24:36.279Z,1.90
2018-11-23T23:27:18.044Z,1.80
2018-11-23T23:29:59.412Z,1.80
2018-11-23T23:32:40.377Z,1.80
2018-11-23T23:35:22.297Z,1.80
2018-11-23T23:38:03.426Z,1.70
2018-11-23T23:40:44.928Z,1.70
2018-11-23T23:43:26.018Z,1.70
2018-11-23T23:46:07.607Z,1.60
2018-11-23T23:48:48.858Z,1.60
2018-11-23T23:51:30.703Z,1.60
2018-11-23T23:54:12.480Z,1.60
2018-11-23T23:56:53.467Z,1.50
2018-11-23T23:59:34.459Z,1.50
